Time;durP1;ratioP1;P1;durP2;ratioP2;P2;SDS_P1;SDS_P2;PMS_P1;PMS_P2;Temp;Humidity;BMP_temperature;BMP_pressure;BME280_temperature;BME280_humidity;BME280_pressure;Samples;Min_cycle;Max_cycle;Signal;HPM_P1;HPM_P2
2022/10/11 00:02:03;;;;;;;10.70;3.67;;;;;;;;;;5041734;28;20206;-62
2022/10/11 00:04:31;;;;;;;5.10;2.97;;;;;;;;;;5040401;28;20324;-63
2022/10/11 00:06:58;;;;;;;7.67;3.20;;;;;;;;;;5040777;28;20218;-64
2022/10/11 00:09:26;;;;;;;3.83;2.78;;;;;;;;;;5032363;28;20214;-62
2022/10/11 00:11:56;;;;;;;6.87;2.67;;;;;;;;;;5039842;28;20211;-62
2022/10/11 00:14:24;;;;;;;6.93;3.10;;;;;;;;;;5036679;28;20221;-62
2022/10/11 00:16:51;;;;;;;4.43;3.10;;;;;;;;;;5040419;28;20244;-63
2022/10/11 00:19:19;;;;;;;7.03;3.13;;;;;;;;;;5037142;28;20220;-63
2022/10/11 00:21:47;;;;;;;8.60;3.50;;;;;;;;;;5039042;28;20703;-62
2022/10/11 00:24:15;;;;;;;4.77;3.30;;;;;;;;;;5035978;28;20230;-62
2022/10/11 00:26:42;;;;;;;5.40;3.20;;;;;;;;;;5030429;28;20234;-64
2022/10/11 00:29:13;;;;;;;10.43;3.42;;;;;;;;;;5041466;28;20289;-62
2022/10/11 00:31:40;;;;;;;8.50;3.43;;;;;;;;;;5037424;28;20206;-62
2022/10/11 00:34:10;;;;;;;6.30;3.63;;;;;;;;;;5030632;28;20215;-62
2022/10/11 00:36:37;;;;;;;8.75;3.58;;;;;;;;;;5035007;28;20234;-62
2022/10/11 00:39:05;;;;;;;7.65;3.58;;;;;;;;;;5047070;28;20229;-62
2022/10/11 00:41:32;;;;;;;7.22;3.60;;;;;;;;;;5046913;28;20216;-62
2022/10/11 00:44:11;;;;;;;4.95;3.10;;;;;;;;;;5040430;28;20256;-63
2022/10/11 00:46:40;;;;;;;8.20;3.50;;;;;;;;;;5041646;28;20235;-61
2022/10/11 00:49:31;;;;;;;4.70;3.00;;;;;;;;;;5037503;28;20201;-61
2022/10/11 00:52:00;;;;;;;5.57;3.33;;;;;;;;;;5040474;28;20319;-63
2022/10/11 00:54:30;;;;;;;5.75;3.30;;;;;;;;;;5050845;28;20210;-62
2022/10/11 00:57:00;;;;;;;6.30;3.28;;;;;;;;;;5050701;28;20230;-61
2022/10/11 00:59:29;;;;;;;5.43;3.53;;;;;;;;;;5045032;28;20283;-62
2022/10/11 01:01:56;;;;;;;7.30;3.22;;;;;;;;;;5054561;28;20210;-62
2022/10/11 01:04:23;;;;;;;10.05;3.60;;;;;;;;;;5057954;28;20230;-64
2022/10/11 01:06:51;;;;;;;3.50;3.20;;;;;;;;;;5067230;28;20225;-61
2022/10/11 01:09:20;;;;;;;6.37;3.30;;;;;;;;;;5050079;28;20466;-62
2022/10/11 01:11:48;;;;;;;5.43;3.03;;;;;;;;;;5034088;28;20618;-61
2022/10/11 01:14:28;;;;;;;8.07;3.58;;;;;;;;;;5040191;28;20218;-61
2022/10/11 01:16:55;;;;;;;7.27;4.27;;;;;;;;;;5037134;28;20326;-62
2022/10/11 01:19:23;;;;;;;4.77;3.43;;;;;;;;;;5032655;28;20209;-61
2022/10/11 01:22:10;;;;;;;7.17;3.70;;;;;;;;;;5034801;28;20213;-61
2022/10/11 01:24:56;;;;;;;7.23;4.17;;;;;;;;;;5034820;28;20225;-61
2022/10/11 01:27:39;;;;;;;5.07;4.13;;;;;;;;;;5035553;28;20652;-61
2022/10/11 01:30:19;;;;;;;7.03;3.57;;;;;;;;;;5037409;28;20380;-61
2022/10/11 01:33:06;;;;;;;9.60;3.80;;;;;;;;;;5040642;28;20209;-62
2022/10/11 01:35:46;;;;;;;6.05;3.50;;;;;;;;;;5067999;28;20217;-62
2022/10/11 01:38:17;;;;;;;9.40;3.90;;;;;;;;;;5033534;28;20217;-61
2022/10/11 01:41:04;;;;;;;5.83;4.20;;;;;;;;;;5034730;28;20220;-63
2022/10/11 01:43:33;;;;;;;5.07;3.97;;;;;;;;;;5042443;28;20652;-63
2022/10/11 01:46:02;;;;;;;6.55;4.38;;;;;;;;;;5034344;28;20224;-62
2022/10/11 01:48:29;;;;;;;15.23;8.23;;;;;;;;;;5039804;28;20214;-62
2022/10/11 01:50:58;;;;;;;16.13;9.75;;;;;;;;;;5045161;28;20225;-62
2022/10/11 01:53:37;;;;;;;13.68;8.63;;;;;;;;;;5028416;28;20352;-62
2022/10/11 01:56:12;;;;;;;11.80;8.35;;;;;;;;;;5046451;28;20303;-62
2022/10/11 01:58:58;;;;;;;14.07;7.50;;;;;;;;;;5054264;28;20240;-62
2022/10/11 02:01:29;;;;;;;10.67;6.50;;;;;;;;;;5054038;28;20690;-62
2022/10/11 02:04:04;;;;;;;13.57;7.88;;;;;;;;;;5043927;28;20254;-62
2022/10/11 02:06:51;;;;;;;11.30;6.72;;;;;;;;;;5045110;28;20309;-62
2022/10/11 02:09:38;;;;;;;8.33;4.53;;;;;;;;;;5035086;28;20198;-62
2022/10/11 02:12:09;;;;;;;8.93;4.38;;;;;;;;;;5036335;28;21348;-62
2022/10/11 02:14:42;;;;;;;7.90;4.70;;;;;;;;;;5041418;28;22149;-62
2022/10/11 02:17:14;;;;;;;5.23;4.50;;;;;;;;;;5040667;28;20233;-62
2022/10/11 02:19:45;;;;;;;8.97;4.63;;;;;;;;;;5041800;28;20202;-62
2022/10/11 02:22:21;;;;;;;5.80;4.57;;;;;;;;;;5031887;28;20202;-62
2022/10/11 02:24:51;;;;;;;9.30;4.60;;;;;;;;;;5034017;28;20217;-62
2022/10/11 02:27:19;;;;;;;13.23;4.90;;;;;;;;;;5040290;28;20217;-62
2022/10/11 02:29:47;;;;;;;14.63;5.03;;;;;;;;;;5036706;28;20954;-62
2022/10/11 02:32:16;;;;;;;9.93;4.57;;;;;;;;;;5031374;28;20209;-62
2022/10/11 02:34:46;;;;;;;8.13;5.13;;;;;;;;;;5040908;28;20218;-62
2022/10/11 02:37:32;;;;;;;6.83;4.70;;;;;;;;;;5043898;28;20226;-61
2022/10/11 02:40:06;;;;;;;7.00;4.93;;;;;;;;;;5034418;28;20940;-62
2022/10/11 02:42:37;;;;;;;7.10;4.87;;;;;;;;;;5040729;28;20251;-62
2022/10/11 02:45:10;;;;;;;7.00;5.13;;;;;;;;;;5036740;28;20229;-62
2022/10/11 02:47:38;;;;;;;7.87;4.97;;;;;;;;;;5033091;28;22501;-62
2022/10/11 02:50:06;;;;;;;5.63;4.63;;;;;;;;;;5045553;28;20609;-62
2022/10/11 02:52:33;;;;;;;9.93;5.17;;;;;;;;;;5039055;28;20312;-62
2022/10/11 02:55:01;;;;;;;7.83;4.80;;;;;;;;;;5037416;28;20205;-62
2022/10/11 02:57:28;;;;;;;9.67;4.73;;;;;;;;;;5034248;28;20323;-62
2022/10/11 02:59:55;;;;;;;9.87;5.27;;;;;;;;;;5048887;28;20211;-62
2022/10/11 03:02:23;;;;;;;4.70;4.10;;;;;;;;;;5054578;28;20202;-62
2022/10/11 03:04:50;;;;;;;31.97;3.67;;;;;;;;;;5056697;28;20313;-62
2022/10/11 03:07:17;;;;;;;3.10;2.80;;;;;;;;;;5052083;28;20241;-62
2022/10/11 03:09:45;;;;;;;6.20;4.47;;;;;;;;;;5036783;28;20240;-62
2022/10/11 03:12:12;;;;;;;6.47;3.97;;;;;;;;;;5042270;28;20209;-62
2022/10/11 03:14:39;;;;;;;4.57;4.00;;;;;;;;;;5038881;28;20227;-63
2022/10/11 03:17:07;;;;;;;5.40;4.23;;;;;;;;;;5040193;28;20236;-62
2022/10/11 03:19:54;;;;;;;14.37;8.63;;;;;;;;;;5036842;28;20214;-62
2022/10/11 03:22:21;;;;;;;10.27;6.07;;;;;;;;;;5039538;28;20682;-62
2022/10/11 03:24:49;;;;;;;6.00;5.10;;;;;;;;;;5037459;28;20260;-62
2022/10/11 03:27:16;;;;;;;7.27;5.13;;;;;;;;;;5042594;28;20230;-61
2022/10/11 03:29:44;;;;;;;8.10;4.97;;;;;;;;;;5048514;28;20591;-62
2022/10/11 03:32:11;;;;;;;7.33;4.90;;;;;;;;;;5037494;28;20228;-62
2022/10/11 03:34:38;;;;;;;5.80;5.10;;;;;;;;;;5038265;28;20239;-62
2022/10/11 03:37:05;;;;;;;6.20;5.00;;;;;;;;;;5039480;28;21408;-62
2022/10/11 03:39:33;;;;;;;8.40;6.13;;;;;;;;;;5027775;28;20209;-62
2022/10/11 03:42:00;;;;;;;6.77;5.03;;;;;;;;;;5032895;28;20214;-62
2022/10/11 03:44:37;;;;;;;6.83;4.70;;;;;;;;;;5034702;28;22072;-62
2022/10/11 03:47:05;;;;;;;4.87;4.03;;;;;;;;;;5030109;28;20231;-61
2022/10/11 03:49:33;;;;;;;6.07;4.83;;;;;;;;;;5036619;28;20570;-62
2022/10/11 03:52:00;;;;;;;4.20;3.80;;;;;;;;;;5044850;28;20208;-62
2022/10/11 03:54:28;;;;;;;5.70;4.03;;;;;;;;;;5032107;28;20215;-62
2022/10/11 03:56:57;;;;;;;6.20;4.53;;;;;;;;;;5042826;28;20221;-62
2022/10/11 03:59:24;;;;;;;5.53;4.20;;;;;;;;;;5040552;28;20690;-62
2022/10/11 04:01:51;;;;;;;6.80;5.20;;;;;;;;;;5050235;28;20682;-62
2022/10/11 04:04:19;;;;;;;8.87;4.93;;;;;;;;;;5049375;28;20223;-61
2022/10/11 04:06:46;;;;;;;8.63;5.10;;;;;;;;;;5051500;28;20321;-62
2022/10/11 04:09:13;;;;;;;9.03;4.83;;;;;;;;;;5033177;28;20287;-62
2022/10/11 04:11:41;;;;;;;6.80;5.60;;;;;;;;;;5034211;28;20201;-62
2022/10/11 04:14:08;;;;;;;6.13;5.30;;;;;;;;;;5036365;28;20218;-61
2022/10/11 04:16:37;;;;;;;9.33;4.80;;;;;;;;;;5029712;28;20225;-62
2022/10/11 04:19:04;;;;;;;5.43;4.47;;;;;;;;;;5029594;28;20218;-61
2022/10/11 04:21:32;;;;;;;8.80;6.17;;;;;;;;;;5029907;28;20300;-62
2022/10/11 04:23:59;;;;;;;10.10;9.07;;;;;;;;;;5031722;28;20536;-62
2022/10/11 04:26:27;;;;;;;12.60;8.10;;;;;;;;;;5037736;28;20245;-63
2022/10/11 04:28:54;;;;;;;10.10;7.87;;;;;;;;;;5039750;28;20216;-62
2022/10/11 04:31:22;;;;;;;14.77;7.87;;;;;;;;;;5032543;28;20210;-62
2022/10/11 04:33:50;;;;;;;9.47;5.97;;;;;;;;;;5034689;28;20292;-62
2022/10/11 04:36:17;;;;;;;10.20;7.00;;;;;;;;;;5030892;28;20223;-62
2022/10/11 04:38:44;;;;;;;9.03;6.73;;;;;;;;;;5049549;28;20209;-61
2022/10/11 04:41:13;;;;;;;7.00;5.37;;;;;;;;;;5040111;28;20221;-62
2022/10/11 04:43:42;;;;;;;7.40;4.57;;;;;;;;;;5056256;28;20289;-61
2022/10/11 04:46:10;;;;;;;4.67;4.03;;;;;;;;;;5061569;28;20331;-62
2022/10/11 04:48:37;;;;;;;5.33;4.17;;;;;;;;;;5063164;28;20284;-61
2022/10/11 04:51:05;;;;;;;6.57;4.53;;;;;;;;;;5056376;28;20208;-61
2022/10/11 04:53:32;;;;;;;5.70;4.33;;;;;;;;;;5066808;28;20687;-61
2022/10/11 04:56:04;;;;;;;5.23;4.73;;;;;;;;;;5077328;28;20236;-61
2022/10/11 04:58:33;;;;;;;4.57;4.17;;;;;;;;;;5040198;28;20220;-61
2022/10/11 05:01:00;;;;;;;5.00;4.50;;;;;;;;;;5049838;28;20217;-61
2022/10/11 05:03:27;;;;;;;6.87;5.00;;;;;;;;;;5054600;28;20318;-61
2022/10/11 05:05:55;;;;;;;5.77;4.43;;;;;;;;;;5063948;28;20235;-61
2022/10/11 05:08:23;;;;;;;7.57;5.27;;;;;;;;;;5045119;28;20249;-62
2022/10/11 05:11:01;;;;;;;9.63;5.30;;;;;;;;;;5040455;28;20253;-62
2022/10/11 05:13:29;;;;;;;9.37;5.07;;;;;;;;;;5036277;28;20224;-62
2022/10/11 05:15:57;;;;;;;5.37;4.47;;;;;;;;;;5028523;28;20205;-62
2022/10/11 05:18:25;;;;;;;5.87;4.53;;;;;;;;;;5040656;28;20226;-61
2022/10/11 05:21:06;;;;;;;8.10;5.20;;;;;;;;;;5043895;28;20237;-62
2022/10/11 05:23:34;;;;;;;10.30;5.40;;;;;;;;;;5043327;28;20739;-62
2022/10/11 05:26:02;;;;;;;6.70;5.70;;;;;;;;;;5043559;28;20228;-61
2022/10/11 05:28:30;;;;;;;12.93;8.43;;;;;;;;;;5038063;28;20861;-61
2022/10/11 05:30:57;;;;;;;13.73;9.40;;;;;;;;;;5036016;28;20200;-62
2022/10/11 05:33:25;;;;;;;12.77;9.13;;;;;;;;;;5036438;28;20289;-63
2022/10/11 05:35:53;;;;;;;11.67;8.70;;;;;;;;;;5029248;28;20216;-61
2022/10/11 05:38:21;;;;;;;16.03;8.50;;;;;;;;;;5034753;28;20674;-63
2022/10/11 05:40:49;;;;;;;16.27;9.40;;;;;;;;;;5041094;28;20209;-62
2022/10/11 05:43:16;;;;;;;15.90;9.97;;;;;;;;;;5043386;28;20213;-61
2022/10/11 05:45:45;;;;;;;16.40;10.93;;;;;;;;;;5040310;28;20237;-61
2022/10/11 05:48:12;;;;;;;17.17;10.23;;;;;;;;;;5034521;28;20324;-63
2022/10/11 05:50:40;;;;;;;21.00;11.57;;;;;;;;;;5035086;28;20205;-61
2022/10/11 05:53:07;;;;;;;15.07;11.00;;;;;;;;;;5033765;28;21391;-63
2022/10/11 05:55:36;;;;;;;14.55;10.75;;;;;;;;;;5029531;28;20288;-61
2022/10/11 05:58:04;;;;;;;11.60;8.87;;;;;;;;;;5038245;28;20232;-61
2022/10/11 06:00:31;;;;;;;14.93;10.43;;;;;;;;;;5037910;28;20213;-63
2022/10/11 06:02:58;;;;;;;14.13;10.30;;;;;;;;;;5032643;28;20241;-61
2022/10/11 06:05:26;;;;;;;16.37;11.50;;;;;;;;;;5043437;28;20221;-62
2022/10/11 06:07:53;;;;;;;15.20;11.10;;;;;;;;;;5035267;28;20236;-63
2022/10/11 06:10:20;;;;;;;19.23;10.90;;;;;;;;;;5045030;28;20213;-63
2022/10/11 06:12:48;;;;;;;15.87;11.37;;;;;;;;;;5045342;28;20715;-63
2022/10/11 06:15:15;;;;;;;21.03;11.93;;;;;;;;;;5039585;28;22346;-62
2022/10/11 06:17:43;;;;;;;17.40;11.13;;;;;;;;;;5042905;28;20346;-60
2022/10/11 06:20:10;;;;;;;17.70;11.57;;;;;;;;;;5041020;28;20222;-61
2022/10/11 06:22:38;;;;;;;18.98;12.20;;;;;;;;;;5037789;28;20224;-63
2022/10/11 06:25:06;;;;;;;17.80;13.03;;;;;;;;;;5040885;28;20577;-61
2022/10/11 06:27:33;;;;;;;19.43;13.50;;;;;;;;;;5043418;28;20356;-62
2022/10/11 06:30:00;;;;;;;17.27;12.93;;;;;;;;;;5043083;28;20309;-62
2022/10/11 06:32:28;;;;;;;16.60;12.67;;;;;;;;;;5046080;28;20983;-63
2022/10/11 06:34:55;;;;;;;18.23;13.90;;;;;;;;;;5037351;28;20209;-62
2022/10/11 06:37:23;;;;;;;19.50;13.17;;;;;;;;;;5038047;28;20226;-62
2022/10/11 06:39:50;;;;;;;20.57;13.17;;;;;;;;;;5029731;28;20217;-62
2022/10/11 06:42:17;;;;;;;18.13;12.43;;;;;;;;;;5041642;28;20348;-61
2022/10/11 06:44:45;;;;;;;21.43;13.17;;;;;;;;;;5046295;28;20830;-63
2022/10/11 06:47:12;;;;;;;17.83;13.17;;;;;;;;;;5044484;28;20295;-62
2022/10/11 06:49:39;;;;;;;20.43;13.23;;;;;;;;;;5046871;28;20721;-61
2022/10/11 06:52:07;;;;;;;19.77;12.77;;;;;;;;;;5041162;28;20982;-60
2022/10/11 06:54:34;;;;;;;20.70;12.33;;;;;;;;;;5044651;28;20209;-61
2022/10/11 06:57:01;;;;;;;18.93;13.20;;;;;;;;;;5051354;28;20259;-62
2022/10/11 06:59:29;;;;;;;19.77;12.73;;;;;;;;;;5042774;28;20215;-62
2022/10/11 07:01:56;;;;;;;20.63;13.57;;;;;;;;;;5038748;28;20296;-61
2022/10/11 07:04:24;;;;;;;19.10;12.97;;;;;;;;;;5045778;28;20280;-61
2022/10/11 07:06:51;;;;;;;19.67;13.07;;;;;;;;;;5056183;28;20742;-61
2022/10/11 07:09:18;;;;;;;20.52;14.32;;;;;;;;;;5053971;28;20639;-61
2022/10/11 07:11:47;;;;;;;20.40;13.50;;;;;;;;;;5039054;28;20224;-61
2022/10/11 07:14:15;;;;;;;20.93;13.90;;;;;;;;;;5038384;28;20286;-61
2022/10/11 07:16:42;;;;;;;17.70;12.77;;;;;;;;;;5036628;28;20225;-62
2022/10/11 07:19:09;;;;;;;17.45;12.95;;;;;;;;;;5037802;28;20202;-61
2022/10/11 07:21:37;;;;;;;25.00;13.60;;;;;;;;;;5050383;28;20210;-62
2022/10/11 07:24:04;;;;;;;22.70;13.20;;;;;;;;;;5035697;28;20209;-63
2022/10/11 07:26:32;;;;;;;22.35;13.80;;;;;;;;;;5038612;28;21756;-61
2022/10/11 07:29:05;;;;;;;18.45;14.30;;;;;;;;;;5045645;28;20209;-63
2022/10/11 07:31:32;;;;;;;21.48;14.00;;;;;;;;;;5034811;28;20301;-60
2022/10/11 07:34:00;;;;;;;20.15;13.65;;;;;;;;;;5033030;28;20206;-61
2022/10/11 07:36:27;;;;;;;22.50;13.63;;;;;;;;;;5039875;28;20252;-61
2022/10/11 07:38:55;;;;;;;21.60;15.17;;;;;;;;;;5036528;28;20754;-61
2022/10/11 07:41:22;;;;;;;20.23;14.18;;;;;;;;;;5032193;28;20421;-61
2022/10/11 07:43:50;;;;;;;22.27;14.87;;;;;;;;;;5055495;28;20288;-61
2022/10/11 07:46:18;;;;;;;25.63;14.77;;;;;;;;;;5055104;28;20224;-62
2022/10/11 07:48:45;;;;;;;19.97;14.57;;;;;;;;;;5054569;28;20213;-62
2022/10/11 07:51:23;;;;;;;20.02;14.48;;;;;;;;;;5056044;28;20290;-61
2022/10/11 07:53:51;;;;;;;20.77;13.93;;;;;;;;;;5056924;28;20221;-62
2022/10/11 07:56:20;;;;;;;22.52;14.45;;;;;;;;;;5055421;28;20213;-62
2022/10/11 07:58:51;;;;;;;23.37;14.30;;;;;;;;;;5059170;28;20213;-61
2022/10/11 08:01:19;;;;;;;22.83;14.27;;;;;;;;;;5056251;28;20296;-61
2022/10/11 08:03:47;;;;;;;24.15;14.18;;;;;;;;;;5057860;28;20703;-62
2022/10/11 08:06:16;;;;;;;25.57;14.77;;;;;;;;;;5059089;28;20348;-62
2022/10/11 08:08:43;;;;;;;20.27;14.00;;;;;;;;;;5071153;28;20210;-62
2022/10/11 08:11:18;;;;;;;22.38;13.95;;;;;;;;;;5056710;28;20226;-62
2022/10/11 08:13:45;;;;;;;24.73;14.20;;;;;;;;;;5053971;28;20274;-62
2022/10/11 08:16:13;;;;;;;21.90;14.35;;;;;;;;;;5048209;28;20220;-62
2022/10/11 08:18:40;;;;;;;20.48;12.38;;;;;;;;;;5037202;28;20771;-61
2022/10/11 08:21:09;;;;;;;22.33;13.03;;;;;;;;;;5036250;28;20209;-61
2022/10/11 08:23:36;;;;;;;19.67;13.10;;;;;;;;;;5038829;28;20245;-61
2022/10/11 08:26:03;;;;;;;22.13;13.80;;;;;;;;;;5041744;28;20240;-63
2022/10/11 08:28:32;;;;;;;24.73;13.70;;;;;;;;;;5044620;28;20198;-61
2022/10/11 08:30:59;;;;;;;21.97;13.27;;;;;;;;;;5044519;28;20303;-63
2022/10/11 08:33:27;;;;;;;22.20;13.77;;;;;;;;;;5036547;28;20205;-63
2022/10/11 08:35:56;;;;;;;23.02;13.13;;;;;;;;;;5034131;28;20688;-63
2022/10/11 08:38:23;;;;;;;22.02;13.65;;;;;;;;;;5033871;28;20333;-62
2022/10/11 08:40:55;;;;;;;24.02;14.70;;;;;;;;;;5034836;28;20862;-63
2022/10/11 08:43:26;;;;;;;23.13;14.48;;;;;;;;;;5038487;28;23529;-62
2022/10/11 08:45:55;;;;;;;22.58;14.40;;;;;;;;;;5045869;28;20232;-63
2022/10/11 08:48:31;;;;;;;23.15;14.60;;;;;;;;;;5039080;28;20939;-61
2022/10/11 08:50:59;;;;;;;20.38;14.40;;;;;;;;;;5055286;28;20280;-62
2022/10/11 08:53:29;;;;;;;22.25;14.45;;;;;;;;;;5064598;28;20624;-63
2022/10/11 08:55:57;;;;;;;22.90;14.88;;;;;;;;;;5057292;28;20210;-62
2022/10/11 08:58:30;;;;;;;25.77;13.95;;;;;;;;;;5067287;28;22076;-63
2022/10/11 09:00:58;;;;;;;25.77;13.80;;;;;;;;;;5051532;28;20292;-64
2022/10/11 09:03:42;;;;;;;18.92;14.32;;;;;;;;;;5053171;28;20292;-63
2022/10/11 09:06:17;;;;;;;21.35;14.18;;;;;;;;;;5055204;28;20227;-61
2022/10/11 09:09:03;;;;;;;23.00;13.77;;;;;;;;;;5054167;28;20682;-61
2022/10/11 09:11:49;;;;;;;23.65;15.32;;;;;;;;;;5037719;28;20343;-62
2022/10/11 09:14:28;;;;;;;25.42;14.45;;;;;;;;;;5037675;28;20589;-60
2022/10/11 09:17:15;;;;;;;23.70;13.80;;;;;;;;;;5041123;28;20221;-61
2022/10/11 09:20:01;;;;;;;26.38;14.70;;;;;;;;;;5041344;28;20209;-61
2022/10/11 09:22:38;;;;;;;29.13;14.43;;;;;;;;;;5048631;28;20228;-61
2022/10/11 09:25:05;;;;;;;23.33;14.35;;;;;;;;;;5038633;28;20217;-61
2022/10/11 09:27:40;;;;;;;24.60;14.55;;;;;;;;;;5040150;28;20221;-61
2022/10/11 09:30:27;;;;;;;21.67;14.15;;;;;;;;;;5036453;28;20239;-62
2022/10/11 09:33:07;;;;;;;23.27;14.10;;;;;;;;;;5035671;28;20209;-63
2022/10/11 09:35:38;;;;;;;26.48;13.88;;;;;;;;;;5035690;28;20283;-63
2022/10/11 09:38:11;;;;;;;25.90;17.63;;;;;;;;;;5034002;28;20336;-63
2022/10/11 09:40:45;;;;;;;34.55;21.85;;;;;;;;;;5038277;28;20202;-63
2022/10/11 09:43:12;;;;;;;23.77;13.85;;;;;;;;;;5040317;28;20248;-63
2022/10/11 09:45:45;;;;;;;21.95;13.50;;;;;;;;;;5041404;28;20242;-61
2022/10/11 09:48:26;;;;;;;19.75;12.25;;;;;;;;;;5042082;28;20228;-61
2022/10/11 09:50:57;;;;;;;21.50;12.25;;;;;;;;;;5040914;28;20449;-62
2022/10/11 09:53:44;;;;;;;26.52;13.68;;;;;;;;;;5044213;28;20233;-61
2022/10/11 09:56:11;;;;;;;26.30;14.07;;;;;;;;;;5035761;28;20320;-61
2022/10/11 09:58:39;;;;;;;22.23;13.43;;;;;;;;;;5031917;28;20215;-61
2022/10/11 10:01:07;;;;;;;25.40;14.10;;;;;;;;;;5036264;28;20222;-62
2022/10/11 10:03:37;;;;;;;23.65;13.77;;;;;;;;;;5045550;28;20221;-62
2022/10/11 10:06:06;;;;;;;23.40;13.38;;;;;;;;;;5042095;28;20242;-63
2022/10/11 10:08:35;;;;;;;22.42;13.48;;;;;;;;;;5039802;28;20274;-61
2022/10/11 10:11:04;;;;;;;19.05;12.85;;;;;;;;;;5059601;28;20246;-62
2022/10/11 10:13:44;;;;;;;22.02;13.45;;;;;;;;;;5042435;28;20352;-63
2022/10/11 10:16:20;;;;;;;21.25;12.85;;;;;;;;;;5040788;28;20282;-62
2022/10/11 10:18:55;;;;;;;18.92;13.10;;;;;;;;;;5042161;28;20221;-61
2022/10/11 10:21:26;;;;;;;18.45;11.48;;;;;;;;;;5040016;28;20292;-61
2022/10/11 10:23:54;;;;;;;19.25;11.82;;;;;;;;;;5044405;28;20210;-61
2022/10/11 10:26:26;;;;;;;16.20;10.68;;;;;;;;;;5037736;28;20230;-61
2022/10/11 10:29:02;;;;;;;16.90;9.57;;;;;;;;;;5046738;28;20210;-61
2022/10/11 10:31:34;;;;;;;15.32;9.88;;;;;;;;;;5034422;28;20325;-61
2022/10/11 10:34:27;;;;;;;14.43;9.30;;;;;;;;;;5049457;28;20225;-62
2022/10/11 10:37:01;;;;;;;17.42;9.13;;;;;;;;;;5037172;28;20233;-61
2022/10/11 10:39:43;;;;;;;13.50;8.80;;;;;;;;;;5030677;28;20209;-62
2022/10/11 10:42:13;;;;;;;16.30;9.85;;;;;;;;;;5036547;28;20212;-62
2022/10/11 10:44:41;;;;;;;15.60;9.23;;;;;;;;;;5048641;28;20210;-62
2022/10/11 10:47:09;;;;;;;14.38;8.40;;;;;;;;;;5036100;28;20242;-61
2022/10/11 10:49:36;;;;;;;14.02;8.02;;;;;;;;;;5047047;28;20607;-62
2022/10/11 10:52:30;;;;;;;14.18;8.25;;;;;;;;;;5042739;28;20205;-61
2022/10/11 10:55:03;;;;;;;12.38;8.25;;;;;;;;;;5041980;28;20204;-62
2022/10/11 10:57:50;;;;;;;11.25;6.47;;;;;;;;;;5039687;28;20228;-62
2022/10/11 11:00:19;;;;;;;11.40;5.95;;;;;;;;;;5037410;28;20304;-62
2022/10/11 11:03:05;;;;;;;13.27;6.28;;;;;;;;;;5045983;28;20233;-64
2022/10/11 11:05:38;;;;;;;14.02;6.45;;;;;;;;;;5051081;28;20360;-63
2022/10/11 11:08:12;;;;;;;12.52;6.00;;;;;;;;;;5055685;28;20774;-63
2022/10/11 11:10:42;;;;;;;11.27;5.85;;;;;;;;;;5033219;28;21066;-62
2022/10/11 11:13:10;;;;;;;11.63;6.05;;;;;;;;;;5040413;28;20218;-63
2022/10/11 11:15:44;;;;;;;10.30;6.20;;;;;;;;;;5032334;28;20214;-62
2022/10/11 11:18:15;;;;;;;9.75;6.55;;;;;;;;;;5047631;28;20232;-63
2022/10/11 11:20:48;;;;;;;14.18;7.47;;;;;;;;;;5037835;28;20294;-61
2022/10/11 11:23:15;;;;;;;12.30;8.02;;;;;;;;;;5038695;28;20290;-61
2022/10/11 11:25:54;;;;;;;12.20;6.97;;;;;;;;;;5039481;28;20248;-62
2022/10/11 11:28:30;;;;;;;13.02;6.30;;;;;;;;;;5039304;28;20225;-61
2022/10/11 11:30:57;;;;;;;9.57;6.22;;;;;;;;;;5041781;28;20212;-62
2022/10/11 11:33:24;;;;;;;10.07;6.65;;;;;;;;;;5037954;28;20210;-62
2022/10/11 11:35:53;;;;;;;9.93;5.50;;;;;;;;;;5040134;28;20296;-63
2022/10/11 11:38:28;;;;;;;14.68;6.13;;;;;;;;;;5041933;28;21527;-61
2022/10/11 11:41:01;;;;;;;10.30;6.25;;;;;;;;;;5058262;28;20209;-61
2022/10/11 11:43:32;;;;;;;10.35;5.82;;;;;;;;;;5042573;28;20324;-61
2022/10/11 11:46:05;;;;;;;6.78;5.55;;;;;;;;;;5041079;28;20233;-62
2022/10/11 11:48:32;;;;;;;7.90;5.70;;;;;;;;;;5040490;28;20209;-62
2022/10/11 11:51:03;;;;;;;8.45;5.22;;;;;;;;;;5042659;28;20198;-61
2022/10/11 11:53:33;;;;;;;10.88;5.82;;;;;;;;;;5048393;28;20663;-61
2022/10/11 11:56:09;;;;;;;10.30;6.32;;;;;;;;;;5039926;28;20201;-62
2022/10/11 11:58:45;;;;;;;9.73;6.85;;;;;;;;;;5038857;28;20197;-62
2022/10/11 12:01:25;;;;;;;11.90;6.82;;;;;;;;;;5038436;28;20305;-62
2022/10/11 12:04:01;;;;;;;11.25;6.75;;;;;;;;;;5040635;28;20202;-61
2022/10/11 12:06:30;;;;;;;14.52;7.15;;;;;;;;;;5041952;28;20264;-62
2022/10/11 12:09:00;;;;;;;9.95;7.32;;;;;;;;;;5048912;28;21185;-61
2022/10/11 12:11:30;;;;;;;12.40;6.68;;;;;;;;;;5039180;28;20340;-60
2022/10/11 12:14:14;;;;;;;10.95;6.30;;;;;;;;;;5046215;28;20216;-61
2022/10/11 12:17:00;;;;;;;8.93;6.63;;;;;;;;;;5046714;28;20225;-63
2022/10/11 12:19:27;;;;;;;14.40;7.80;;;;;;;;;;5038943;28;20227;-63
2022/10/11 12:22:14;;;;;;;12.63;8.38;;;;;;;;;;5046389;28;20212;-62
2022/10/11 12:24:52;;;;;;;15.52;8.52;;;;;;;;;;5041351;28;20205;-61
2022/10/11 12:27:55;;;;;;;14.18;8.38;;;;;;;;;;5043017;28;20230;-63
2022/10/11 12:30:42;;;;;;;13.85;8.52;;;;;;;;;;4992143;28;20356;-61
2022/10/11 12:33:14;;;;;;;15.15;9.50;;;;;;;;;;5065235;28;20233;-61
2022/10/11 12:35:55;;;;;;;15.80;9.05;;;;;;;;;;5039005;28;20706;-61
2022/10/11 12:38:30;;;;;;;12.40;9.20;;;;;;;;;;5043382;28;23839;-60
2022/10/11 12:40:59;;;;;;;14.30;9.50;;;;;;;;;;5039089;28;20201;-61
2022/10/11 12:43:29;;;;;;;13.50;9.32;;;;;;;;;;5044374;28;20202;-63
2022/10/11 12:45:56;;;;;;;13.07;9.40;;;;;;;;;;5041776;28;20322;-61
2022/10/11 12:48:44;;;;;;;13.60;9.23;;;;;;;;;;5041031;28;20236;-63
2022/10/11 12:51:23;;;;;;;12.82;9.95;;;;;;;;;;5062457;28;20201;-62
2022/10/11 12:54:03;;;;;;;17.35;10.93;;;;;;;;;;5055034;28;20707;-61
2022/10/11 12:56:53;;;;;;;17.85;11.20;;;;;;;;;;5056053;28;20316;-61
2022/10/11 12:59:22;;;;;;;20.77;11.55;;;;;;;;;;5057728;28;20819;-61
2022/10/11 13:01:57;;;;;;;16.83;12.25;;;;;;;;;;5046715;28;20197;-62
2022/10/11 13:04:29;;;;;;;21.27;12.60;;;;;;;;;;5054063;28;20212;-63
2022/10/11 13:06:58;;;;;;;16.80;12.13;;;;;;;;;;5062320;28;20375;-63
2022/10/11 13:09:41;;;;;;;20.08;11.77;;;;;;;;;;5040683;28;20208;-63
2022/10/11 13:12:17;;;;;;;13.88;10.07;;;;;;;;;;5038368;28;20205;-62
2022/10/11 13:14:45;;;;;;;17.60;10.57;;;;;;;;;;5038317;28;20643;-63
2022/10/11 13:17:20;;;;;;;14.40;10.25;;;;;;;;;;5037053;28;20313;-63
2022/10/11 13:19:51;;;;;;;14.85;10.68;;;;;;;;;;5039896;28;20305;-63
2022/10/11 13:22:21;;;;;;;12.60;10.07;;;;;;;;;;5046074;28;20213;-63
2022/10/11 13:24:48;;;;;;;18.13;11.32;;;;;;;;;;5038059;28;21018;-61
2022/10/11 13:27:20;;;;;;;14.25;10.57;;;;;;;;;;5038424;28;20230;-61
2022/10/11 13:29:48;;;;;;;13.68;10.65;;;;;;;;;;5042649;28;20205;-63
2022/10/11 13:32:18;;;;;;;15.48;11.00;;;;;;;;;;5031653;28;20290;-62
2022/10/11 13:34:47;;;;;;;19.05;11.77;;;;;;;;;;5050052;28;20206;-63
2022/10/11 13:37:19;;;;;;;17.58;12.60;;;;;;;;;;5032747;28;20396;-61
2022/10/11 13:39:50;;;;;;;17.58;12.60;;;;;;;;;;5040866;28;20205;-63
2022/10/11 13:42:18;;;;;;;15.05;12.45;;;;;;;;;;5036003;28;20288;-63
2022/10/11 13:44:45;;;;;;;18.08;12.93;;;;;;;;;;5060158;28;20232;-63
2022/10/11 13:47:14;;;;;;;16.35;12.52;;;;;;;;;;5061041;28;20984;-64
2022/10/11 13:49:52;;;;;;;19.48;13.02;;;;;;;;;;5060112;28;20202;-61
2022/10/11 13:52:19;;;;;;;25.58;13.73;;;;;;;;;;5060465;28;20234;-62
2022/10/11 13:54:53;;;;;;;19.27;12.85;;;;;;;;;;5060394;28;20201;-63
2022/10/11 13:57:40;;;;;;;19.50;13.25;;;;;;;;;;5060951;28;20304;-62
2022/10/11 14:00:21;;;;;;;19.20;12.93;;;;;;;;;;5039800;28;20201;-62
2022/10/11 14:02:51;;;;;;;19.25;12.82;;;;;;;;;;5043262;28;20205;-61
2022/10/11 14:05:23;;;;;;;22.67;12.98;;;;;;;;;;5055886;28;20285;-62
2022/10/11 14:07:50;;;;;;;27.25;13.20;;;;;;;;;;5058923;28;20233;-62
2022/10/11 14:10:19;;;;;;;19.30;13.93;;;;;;;;;;5060290;28;20213;-62
2022/10/11 14:12:57;;;;;;;21.08;13.32;;;;;;;;;;5044238;28;20201;-62
2022/10/11 14:15:24;;;;;;;16.38;12.98;;;;;;;;;;5052257;28;20198;-62
2022/10/11 14:17:52;;;;;;;20.73;13.32;;;;;;;;;;5056964;28;20234;-62
2022/10/11 14:20:19;;;;;;;20.65;13.18;;;;;;;;;;5055740;28;20208;-62
2022/10/11 14:22:49;;;;;;;21.05;13.13;;;;;;;;;;5049791;28;20206;-62
2022/10/11 14:25:17;;;;;;;21.85;13.35;;;;;;;;;;5045604;28;20218;-61
2022/10/11 14:27:44;;;;;;;20.92;13.65;;;;;;;;;;5045745;28;20371;-61
2022/10/11 14:30:17;;;;;;;17.52;11.98;;;;;;;;;;5055910;28;20379;-63
2022/10/11 14:32:55;;;;;;;23.70;13.18;;;;;;;;;;5054209;28;20198;-62
2022/10/11 14:35:27;;;;;;;23.88;13.63;;;;;;;;;;5058686;28;20651;-63
2022/10/11 14:37:54;;;;;;;18.80;12.98;;;;;;;;;;5067292;28;20323;-61
2022/10/11 14:40:23;;;;;;;18.67;14.02;;;;;;;;;;5058078;28;20255;-61
2022/10/11 14:42:50;;;;;;;20.60;13.10;;;;;;;;;;5059307;28;20785;-62
2022/10/11 14:45:20;;;;;;;22.55;13.77;;;;;;;;;;5059701;28;20297;-62
2022/10/11 14:47:47;;;;;;;20.23;13.80;;;;;;;;;;5064756;28;20230;-62
2022/10/11 14:50:26;;;;;;;23.58;14.73;;;;;;;;;;5064669;28;20277;-62
2022/10/11 14:52:54;;;;;;;20.63;15.07;;;;;;;;;;5064253;28;20208;-63